Disclaimer

Please do not use the information listed here in-flight or in-navigation, as they are not provided to us by the airports but are provided by volunteers, so they might be outdated.

Search


Regions


Airport information page

Radio informations:
TWR/APP - 118.75 MHz
Ground (GND) - 121.7 MHz
CON - 124.4 MHz

Airport informations:
Latitude: 37° 56' 03.00" S
Longitude: 057° 34' 24.00" W
Elevation: 71 feet - 22 meters
Operating hours: 24 hour operations
Operating agency: Military-civil joint use airport
Timezone: UTC-3
Fuel: Jet A1, without icing nhibitor.

100/130 MIL Spec, low lead, aviation gasoline (BLUE)

Runway information:
13/31 - 7218 x 197 feet< - >2200 x 60 meters

Recent METARs:
SAZM 190700Z 29005KT CAVOK 11/09 Q1013
SAZM 190700Z 29005KT CAVOK 11/09 Q1013
SAZM 190700Z 29005KT CAVOK 11/09 Q1013

Airport on the map: